Lake Orion, MI (48362)

5:58 AM EST on February 07, 2016 (GMT -0500)
Red Barn Subdivision | | Change Station
CLOSE
Current Station
Personal Weather Station
Location: Oxford Charter Township, MI
Elevation: 1020 ft
Nearby Weather Stations

Elev 1020 ft 42.80 °N, 83.25 °W | Updated 1 minute ago

Partly Cloudy
Partly Cloudy
28.9 °F
Feels Like 26 °F
N
3.2
Wind Variable Wind from SSE

Today
High -- | Low -- °F
--% Chance of Precip.
Yesterday
High -- | Low -- °F
Precip. -- in
Pressure 30.02 in
Visibility 8.0 miles
Clouds Clear
Windchill 26 °F
Dew Point 26 °F
Humidity 90%
Rainfall 0.00 in
Snow Depth Not available.
7:41 AM 5:53 PM
Waning Crescent, 2% visible
METAR KPTK 071053Z 17005KT 8SM CLR M02/M04 A2999 RMK AO2 SLP164 FIRST AUGMENTED OBS OF THE DAY T10171044
Pressure 30.02 in
Visibility 8.0 miles
Clouds Clear
Windchill 26 °F
Dew Point 26 °F
Humidity 90%
Rainfall 0.00 in
Snow Depth Not available.
7:41 AM 5:53 PM
Waning Crescent, 2% visible
METAR KPTK 071053Z 17005KT 8SM CLR M02/M04 A2999 RMK AO2 SLP164 FIRST AUGMENTED OBS OF THE DAY T10171044

10-Day Weather Forecast

Almanac

Astronomy

Feb. 07, 2016 Rise Set
Actual Time
Civil Twilight
Nautical Twilight
Astronomical Twilight
Moon
Length of Visible Light
Length of Day
Tomorrow will be .
, % of the Moon is Illuminated

Today's Extremes

State Highs State Lows

Community

WunderPhotos

Upload Photos

1,891,171 photos uploaded!

WunderBlog® & News

Nearby

Air Quality

  Air Quality AQ Index Pollutant
Not available.

Snow Depth

Station Depth Elevation

Earthquake Activity

City Distance Mag. Time & Date
Minimum magnitude displayed is 2.5.

Coastal Water Temperatures

Place Temperature

Stations

Nearby Weather Stations

Station Location Temp. Windchill Dew Point Humidity Wind Precip. Elev Updated Type
                   

Watches & Warnings

There are currently no watches in effect.